createdAt,value
2022-09-18T00:02:10.540Z,5.50
2022-09-18T00:05:13.576Z,5.10
2022-09-18T00:08:16.656Z,5.83
2022-09-18T00:11:24.267Z,4.30
2022-09-18T00:14:27.962Z,4.47
2022-09-18T00:17:30.908Z,4.67
2022-09-18T00:20:38.254Z,5.73
2022-09-18T00:23:42.634Z,6.60
2022-09-18T00:26:47.699Z,4.03
2022-09-18T00:29:50.683Z,5.00
2022-09-18T00:32:53.894Z,5.33
2022-09-18T00:35:56.832Z,5.77
2022-09-18T00:39:00.500Z,4.90
2022-09-18T00:42:05.595Z,6.63
2022-09-18T00:45:10.797Z,7.90
2022-09-18T00:48:13.827Z,7.63
2022-09-18T00:51:19.219Z,6.00
2022-09-18T00:54:28.331Z,5.60
2022-09-18T00:57:36.499Z,5.43
2022-09-18T01:00:39.919Z,5.73
2022-09-18T01:03:43.504Z,3.77
2022-09-18T01:06:52.009Z,5.53
2022-09-18T01:10:07.284Z,3.80
2022-09-18T01:13:21.314Z,4.10
2022-09-18T01:16:35.046Z,4.10
2022-09-18T01:20:07.487Z,5.00
2022-09-18T01:23:32.146Z,3.40
2022-09-18T01:26:55.218Z,2.43
2022-09-18T01:30:06.801Z,2.77
2022-09-18T01:33:17.964Z,2.60
2022-09-18T01:36:25.840Z,2.60
2022-09-18T01:39:35.700Z,2.80
2022-09-18T01:42:41.143Z,3.20
2022-09-18T01:45:48.947Z,2.80
2022-09-18T01:49:02.467Z,3.57
2022-09-18T01:52:11.610Z,3.03
2022-09-18T01:55:22.999Z,3.10
2022-09-18T01:58:30.045Z,3.27
2022-09-18T02:01:38.931Z,3.10
2022-09-18T02:04:46.375Z,3.30
2022-09-18T02:08:00.975Z,3.63
2022-09-18T02:11:08.466Z,3.40
2022-09-18T02:14:16.188Z,2.83
2022-09-18T02:17:50.334Z,3.93
2022-09-18T02:20:56.189Z,3.67
2022-09-18T02:24:05.916Z,5.03
2022-09-18T02:27:12.971Z,3.17
2022-09-18T02:30:16.479Z,4.07
2022-09-18T02:33:33.122Z,5.07
2022-09-18T02:36:59.716Z,5.17
2022-09-18T02:40:25.400Z,4.90
2022-09-18T02:43:42.053Z,6.53
2022-09-18T02:46:58.131Z,4.00
2022-09-18T02:50:15.466Z,3.87
2022-09-18T02:53:27.115Z,4.80
2022-09-18T02:56:39.585Z,4.77
2022-09-18T02:59:47.552Z,5.40
2022-09-18T03:02:52.905Z,4.93
2022-09-18T03:06:09.621Z,5.27
2022-09-18T03:09:13.712Z,4.47
2022-09-18T03:12:16.987Z,6.37
2022-09-18T03:15:25.933Z,6.53
2022-09-18T03:18:28.890Z,6.57
2022-09-18T03:21:34.871Z,6.23
2022-09-18T03:24:39.704Z,6.83
2022-09-18T03:27:43.603Z,7.50
2022-09-18T03:30:52.095Z,7.77
2022-09-18T03:33:55.828Z,5.80
2022-09-18T03:37:00.255Z,6.47
2022-09-18T03:40:04.075Z,6.50
2022-09-18T03:43:09.040Z,6.57
2022-09-18T03:46:12.325Z,6.83
2022-09-18T03:49:15.851Z,7.33
2022-09-18T03:52:20.997Z,6.30
2022-09-18T03:55:30.528Z,5.77
2022-09-18T03:58:59.381Z,7.03
2022-09-18T04:02:22.880Z,6.80
2022-09-18T04:05:44.558Z,6.23
2022-09-18T04:09:07.929Z,7.13
2022-09-18T04:12:18.824Z,6.83
2022-09-18T04:15:30.232Z,6.97
2022-09-18T04:18:33.738Z,6.30
2022-09-18T04:21:39.050Z,6.50
2022-09-18T04:24:43.460Z,6.53
2022-09-18T04:27:47.308Z,7.17
2022-09-18T04:30:51.099Z,6.80
2022-09-18T04:33:54.136Z,6.87
2022-09-18T04:37:00.075Z,8.17
2022-09-18T04:40:07.628Z,8.30
2022-09-18T04:43:11.816Z,8.23
2022-09-18T04:46:17.091Z,7.93
2022-09-18T04:49:21.097Z,7.77
2022-09-18T04:52:25.093Z,7.70
2022-09-18T04:55:29.757Z,6.17
2022-09-18T04:58:33.203Z,6.50
2022-09-18T05:01:38.286Z,6.50
2022-09-18T05:04:46.762Z,6.60
2022-09-18T05:08:03.937Z,5.70
2022-09-18T05:11:08.421Z,6.53
2022-09-18T05:14:13.388Z,5.50
2022-09-18T05:17:20.650Z,6.97
2022-09-18T05:20:38.220Z,6.40
2022-09-18T05:23:45.175Z,4.97
2022-09-18T05:26:49.799Z,6.33
2022-09-18T05:29:55.878Z,4.97
2022-09-18T05:33:08.075Z,4.70
2022-09-18T05:36:14.720Z,4.80
2022-09-18T05:39:18.043Z,4.87
2022-09-18T05:42:22.842Z,5.27
2022-09-18T05:45:26.885Z,6.10
2022-09-18T05:48:31.089Z,6.07
2022-09-18T05:51:34.611Z,6.27
2022-09-18T05:54:38.026Z,5.87
2022-09-18T05:57:42.726Z,4.93
2022-09-18T06:00:47.446Z,5.43
2022-09-18T06:03:59.408Z,7.67
2022-09-18T06:07:05.353Z,5.77
2022-09-18T06:10:09.351Z,6.10
2022-09-18T06:13:16.390Z,4.97
2022-09-18T06:16:22.895Z,5.70
2022-09-18T06:19:32.422Z,6.50
2022-09-18T06:22:36.798Z,8.00
2022-09-18T06:25:39.991Z,5.03
2022-09-18T06:28:48.360Z,9.03
2022-09-18T06:31:53.447Z,8.80
2022-09-18T06:35:02.706Z,5.67
2022-09-18T06:38:08.063Z,5.03
2022-09-18T06:41:15.116Z,5.93
2022-09-18T06:44:26.028Z,5.10
2022-09-18T06:47:39.323Z,5.00
2022-09-18T06:50:43.308Z,5.00
2022-09-18T06:53:46.556Z,5.97
2022-09-18T06:56:50.038Z,6.93
2022-09-18T06:59:56.575Z,5.50
2022-09-18T07:03:02.903Z,5.00
2022-09-18T07:06:31.606Z,5.37
2022-09-18T07:09:35.066Z,5.83
2022-09-18T07:12:49.243Z,7.57
2022-09-18T07:15:56.089Z,7.47
2022-09-18T07:18:59.265Z,4.83
2022-09-18T07:22:02.413Z,4.27
2022-09-18T07:25:11.651Z,5.20
2022-09-18T07:28:18.965Z,5.03
2022-09-18T07:31:36.188Z,4.73
2022-09-18T07:34:42.551Z,4.73
2022-09-18T07:37:48.831Z,4.40
2022-09-18T07:40:56.424Z,4.00
2022-09-18T07:44:06.731Z,4.63
2022-09-18T07:47:12.724Z,4.03
2022-09-18T07:50:16.295Z,4.03
2022-09-18T07:53:20.467Z,4.00
2022-09-18T07:56:27.853Z,4.97
2022-09-18T07:59:31.727Z,4.53
2022-09-18T08:02:39.514Z,4.90
2022-09-18T08:05:43.388Z,3.20
2022-09-18T08:08:46.872Z,7.40
2022-09-18T08:12:00.336Z,4.93
2022-09-18T08:15:17.803Z,4.80
2022-09-18T08:18:41.100Z,5.07
2022-09-18T08:22:06.623Z,3.03
2022-09-18T08:25:11.062Z,4.50
2022-09-18T08:28:14.082Z,5.83
2022-09-18T08:31:23.690Z,5.03
2022-09-18T08:34:32.043Z,4.50
2022-09-18T08:37:41.395Z,4.10
2022-09-18T08:41:27.146Z,3.63
2022-09-18T08:44:36.497Z,3.73
2022-09-18T08:47:46.255Z,4.60
2022-09-18T08:50:57.969Z,4.80
2022-09-18T08:54:18.969Z,3.67
2022-09-18T08:57:41.797Z,4.87
2022-09-18T09:00:53.476Z,3.57
2022-09-18T09:04:15.593Z,3.60
2022-09-18T09:07:43.113Z,4.27
2022-09-18T09:10:56.479Z,4.00
2022-09-18T09:14:39.730Z,3.13
2022-09-18T09:17:54.398Z,3.13
2022-09-18T09:21:13.993Z,3.47
2022-09-18T09:24:31.247Z,3.93
2022-09-18T09:27:45.114Z,3.40
2022-09-18T09:31:10.892Z,3.60
2022-09-18T09:34:37.623Z,4.23
2022-09-18T09:37:47.571Z,3.20
2022-09-18T09:40:55.785Z,2.97
2022-09-18T09:44:10.890Z,3.90
2022-09-18T09:47:30.427Z,3.43
2022-09-18T09:50:52.880Z,3.03
2022-09-18T09:54:01.941Z,3.30
2022-09-18T09:57:23.133Z,3.10
2022-09-18T10:00:27.044Z,3.17
2022-09-18T10:03:56.135Z,3.20
2022-09-18T10:07:18.862Z,2.50
2022-09-18T10:10:32.180Z,3.60
2022-09-18T10:13:43.056Z,2.97
2022-09-18T10:16:49.867Z,3.70
2022-09-18T10:19:54.493Z,3.40
2022-09-18T10:23:03.868Z,3.07
2022-09-18T10:26:08.018Z,3.17
2022-09-18T10:29:12.777Z,3.37
2022-09-18T10:32:35.672Z,4.07
2022-09-18T10:35:47.015Z,3.20
2022-09-18T10:38:52.380Z,3.00
2022-09-18T10:42:18.218Z,2.50
2022-09-18T10:45:29.050Z,2.90
2022-09-18T10:48:45.396Z,3.80
2022-09-18T10:51:49.044Z,2.93
2022-09-18T10:55:20.751Z,3.47
2022-09-18T10:58:33.432Z,3.30
2022-09-18T11:01:42.621Z,3.00
2022-09-18T11:04:48.690Z,2.95
2022-09-18T11:07:59.418Z,2.80
2022-09-18T11:11:07.974Z,2.63
2022-09-18T11:14:21.564Z,2.77
2022-09-18T11:17:47.010Z,4.43
2022-09-18T11:20:51.967Z,2.80
2022-09-18T11:24:05.328Z,3.75
2022-09-18T11:27:22.108Z,2.70
2022-09-18T11:30:31.607Z,3.05
2022-09-18T11:33:45.251Z,2.97
2022-09-18T11:36:53.097Z,2.15
2022-09-18T11:40:02.266Z,2.83
2022-09-18T11:43:16.474Z,2.30
2022-09-18T11:46:30.072Z,2.37
2022-09-18T11:49:41.901Z,2.80
2022-09-18T11:52:47.258Z,2.33
2022-09-18T11:55:59.082Z,2.70
2022-09-18T11:59:12.064Z,3.07
2022-09-18T12:02:23.769Z,3.33
2022-09-18T12:05:34.360Z,2.88
2022-09-18T12:08:47.401Z,3.13
2022-09-18T12:12:02.551Z,4.28
2022-09-18T12:15:17.097Z,2.90
2022-09-18T12:18:25.687Z,2.95
2022-09-18T12:21:41.151Z,3.10
2022-09-18T12:24:44.271Z,3.42
2022-09-18T12:27:58.134Z,2.50
2022-09-18T12:31:11.535Z,2.50
2022-09-18T12:34:23.074Z,2.37
2022-09-18T12:37:46.489Z,2.67
2022-09-18T12:41:16.946Z,3.97
2022-09-18T12:44:49.817Z,2.73
2022-09-18T12:48:27.033Z,2.58
2022-09-18T12:51:42.569Z,2.08
2022-09-18T12:55:06.670Z,2.85
2022-09-18T12:58:29.267Z,1.95
2022-09-18T13:01:38.279Z,2.60
2022-09-18T13:04:48.034Z,2.72
2022-09-18T13:07:56.198Z,2.13
2022-09-18T13:11:06.315Z,2.40
2022-09-18T13:14:17.815Z,2.70
2022-09-18T13:17:26.885Z,2.65
2022-09-18T13:20:35.231Z,2.42
2022-09-18T13:23:44.450Z,2.42
2022-09-18T13:26:50.859Z,2.92
2022-09-18T13:29:59.235Z,2.80
2022-09-18T13:33:03.899Z,2.70
2022-09-18T13:36:07.480Z,2.55
2022-09-18T13:39:19.886Z,1.95
2022-09-18T13:42:34.696Z,1.80
2022-09-18T13:45:39.722Z,2.38
2022-09-18T13:48:48.698Z,2.40
2022-09-18T13:51:51.910Z,2.28
2022-09-18T13:55:02.264Z,2.15
2022-09-18T13:58:50.767Z,2.20
2022-09-18T14:02:03.423Z,2.40
2022-09-18T14:05:32.355Z,2.30
2022-09-18T14:08:40.980Z,1.90
2022-09-18T14:11:44.090Z,2.50
2022-09-18T14:15:03.169Z,3.70
2022-09-18T14:18:13.128Z,3.63
2022-09-18T14:21:26.601Z,2.50
2022-09-18T14:24:58.066Z,2.50
2022-09-18T14:28:05.416Z,2.30
2022-09-18T14:31:28.882Z,2.60
2022-09-18T14:34:38.660Z,2.70
2022-09-18T14:37:41.582Z,2.20
2022-09-18T14:40:54.320Z,2.47
2022-09-18T14:44:00.462Z,2.27
2022-09-18T14:47:08.948Z,2.70
2022-09-18T14:50:31.978Z,2.40
2022-09-18T14:53:44.522Z,2.30
2022-09-18T14:56:50.094Z,2.60
2022-09-18T14:59:56.679Z,2.50
2022-09-18T15:03:06.975Z,2.20
2022-09-18T15:06:19.779Z,2.23
2022-09-18T15:09:27.914Z,2.70
2022-09-18T15:12:34.823Z,2.60
2022-09-18T15:15:40.383Z,1.90
2022-09-18T15:18:44.917Z,2.73
2022-09-18T15:21:49.276Z,2.57
2022-09-18T15:24:52.904Z,2.77
2022-09-18T15:27:58.096Z,2.87
2022-09-18T15:31:05.247Z,2.40
2022-09-18T15:34:18.030Z,2.00
2022-09-18T15:37:24.440Z,2.33
2022-09-18T15:40:30.475Z,3.27
2022-09-18T15:43:43.679Z,2.67
2022-09-18T15:46:46.618Z,2.67
2022-09-18T15:49:51.663Z,2.03
2022-09-18T15:53:08.789Z,3.27
2022-09-18T15:56:21.344Z,2.30
2022-09-18T15:59:30.951Z,3.53
2022-09-18T16:02:37.575Z,2.47
2022-09-18T16:05:53.809Z,2.60
2022-09-18T16:08:58.084Z,3.27
2022-09-18T16:12:01.887Z,2.57
2022-09-18T16:15:26.145Z,2.83
2022-09-18T16:18:29.950Z,2.40
2022-09-18T16:21:41.957Z,2.30
2022-09-18T16:24:44.952Z,3.03
2022-09-18T16:27:49.803Z,2.33
2022-09-18T16:30:52.983Z,3.03
2022-09-18T16:34:01.191Z,2.73
2022-09-18T16:37:12.186Z,3.13
2022-09-18T16:40:25.343Z,3.23
2022-09-18T16:43:30.684Z,3.67
2022-09-18T16:46:43.126Z,2.40
2022-09-18T16:49:49.245Z,3.10
2022-09-18T16:52:58.465Z,2.93
2022-09-18T16:56:08.155Z,3.00
2022-09-18T16:59:11.501Z,2.83
2022-09-18T17:02:18.166Z,3.00
2022-09-18T17:05:21.082Z,5.63
2022-09-18T17:08:25.579Z,2.80
2022-09-18T17:11:28.593Z,2.83
2022-09-18T17:14:31.597Z,3.17
2022-09-18T17:17:35.071Z,2.80
2022-09-18T17:20:38.589Z,3.83
2022-09-18T17:23:42.902Z,3.07
2022-09-18T17:26:46.306Z,4.93
2022-09-18T17:29:49.750Z,3.20
2022-09-18T17:32:52.945Z,3.03
2022-09-18T17:35:56.157Z,2.77
2022-09-18T17:39:02.492Z,4.57
2022-09-18T17:42:06.575Z,3.90
2022-09-18T17:45:10.572Z,3.00
2022-09-18T17:48:13.732Z,3.73
2022-09-18T17:51:18.678Z,3.97
2022-09-18T17:54:23.291Z,4.13
2022-09-18T17:57:26.610Z,5.93
2022-09-18T18:00:29.900Z,6.63
2022-09-18T18:03:33.221Z,3.50
2022-09-18T18:06:36.903Z,4.47
2022-09-18T18:09:41.300Z,5.43
2022-09-18T18:12:44.419Z,6.20
2022-09-18T18:15:48.215Z,6.93
2022-09-18T18:18:52.713Z,5.20
2022-09-18T18:21:58.292Z,3.33
2022-09-18T18:25:02.838Z,4.50
2022-09-18T18:28:12.808Z,4.83
2022-09-18T18:31:17.241Z,6.07
2022-09-18T18:34:22.165Z,5.80
2022-09-18T18:37:25.189Z,4.77
2022-09-18T18:40:29.850Z,4.30
2022-09-18T18:43:33.724Z,4.10
2022-09-18T18:46:38.094Z,4.80
2022-09-18T18:49:41.174Z,3.73
2022-09-18T18:52:45.355Z,4.10
2022-09-18T18:55:51.360Z,3.33
2022-09-18T18:58:57.669Z,3.37
2022-09-18T19:02:01.149Z,4.30
2022-09-18T19:05:06.265Z,3.60
2022-09-18T19:08:09.606Z,4.07
2022-09-18T19:11:16.047Z,4.30
2022-09-18T19:14:21.554Z,4.87
2022-09-18T19:17:24.511Z,5.40
2022-09-18T19:20:27.484Z,4.83
2022-09-18T19:23:30.617Z,4.07
2022-09-18T19:26:36.890Z,4.70
2022-09-18T19:29:39.855Z,4.07
2022-09-18T19:32:53.763Z,4.63
2022-09-18T19:36:10.634Z,5.00
2022-09-18T19:39:17.476Z,4.87
2022-09-18T19:42:25.660Z,5.00
2022-09-18T19:45:31.172Z,4.27
2022-09-18T19:48:35.622Z,4.17
2022-09-18T19:51:38.716Z,4.57
2022-09-18T19:54:42.043Z,4.50
2022-09-18T19:57:46.531Z,5.07
2022-09-18T20:00:50.594Z,5.80
2022-09-18T20:03:54.947Z,4.93
2022-09-18T20:06:57.924Z,5.37
2022-09-18T20:10:00.904Z,5.77
2022-09-18T20:13:06.053Z,4.73
2022-09-18T20:16:12.713Z,5.97
2022-09-18T20:19:15.678Z,4.23
2022-09-18T20:22:18.909Z,4.60
2022-09-18T20:25:53.254Z,3.80
2022-09-18T20:29:00.470Z,3.93
2022-09-18T20:32:03.790Z,5.20
2022-09-18T20:35:07.871Z,4.97
2022-09-18T20:38:11.694Z,3.97
2022-09-18T20:41:15.972Z,5.13
2022-09-18T20:44:21.901Z,3.60
2022-09-18T20:47:26.163Z,3.83
2022-09-18T20:50:29.108Z,3.80
2022-09-18T20:53:32.026Z,3.63
2022-09-18T20:56:41.170Z,3.77
2022-09-18T20:59:45.646Z,4.17
2022-09-18T21:02:51.850Z,3.70
2022-09-18T21:06:23.319Z,3.60
2022-09-18T21:09:30.739Z,4.83
2022-09-18T21:12:38.774Z,5.13
2022-09-18T21:15:47.157Z,3.93
2022-09-18T21:18:55.610Z,4.67
2022-09-18T21:21:58.561Z,5.63
2022-09-18T21:25:01.642Z,4.00
2022-09-18T21:28:05.964Z,5.17
2022-09-18T21:31:12.242Z,5.10
2022-09-18T21:34:23.752Z,4.70
2022-09-18T21:37:26.815Z,3.87
2022-09-18T21:40:30.292Z,4.33
2022-09-18T21:43:33.757Z,5.57
2022-09-18T21:46:40.240Z,5.73
2022-09-18T21:49:43.382Z,5.97
2022-09-18T21:52:46.415Z,5.73
2022-09-18T21:55:49.506Z,5.70
2022-09-18T21:58:55.768Z,5.17
2022-09-18T22:02:01.799Z,4.63
2022-09-18T22:05:12.195Z,5.70
2022-09-18T22:08:16.565Z,5.63
2022-09-18T22:11:22.771Z,6.73
2022-09-18T22:14:32.620Z,5.13
2022-09-18T22:17:36.882Z,5.10
2022-09-18T22:20:39.831Z,4.67
2022-09-18T22:23:42.951Z,4.90
2022-09-18T22:26:49.203Z,5.27
2022-09-18T22:29:52.142Z,6.00
2022-09-18T22:32:56.501Z,4.67
2022-09-18T22:36:05.213Z,4.93
2022-09-18T22:39:11.776Z,5.37
2022-09-18T22:42:15.051Z,5.53
2022-09-18T22:45:18.628Z,4.53
2022-09-18T22:48:22.982Z,4.40
2022-09-18T22:51:28.097Z,5.43
2022-09-18T22:54:31.145Z,5.20
2022-09-18T22:57:34.234Z,4.17
2022-09-18T23:00:37.225Z,4.73
2022-09-18T23:03:41.965Z,4.30
2022-09-18T23:06:46.538Z,4.20
2022-09-18T23:09:49.659Z,5.00
2022-09-18T23:12:52.744Z,4.60
2022-09-18T23:15:55.786Z,4.37
2022-09-18T23:19:05.430Z,4.83
2022-09-18T23:22:09.966Z,4.37
2022-09-18T23:25:12.966Z,4.30
2022-09-18T23:28:15.906Z,4.90
2022-09-18T23:31:22.892Z,5.20
2022-09-18T23:34:31.745Z,6.20
2022-09-18T23:37:34.660Z,6.57
2022-09-18T23:40:37.686Z,7.00
2022-09-18T23:43:46.012Z,6.47
2022-09-18T23:46:49.630Z,7.07
2022-09-18T23:49:54.003Z,7.70
2022-09-18T23:52:56.938Z,8.23
2022-09-18T23:56:04.895Z,6.77
2022-09-18T23:59:08.414Z,7.60
